sensor_id;sensor_type;location;lat;lon;timestamp;pressure;altitude;pressure_sealevel;temperature;humidity
66396;BME280;53207;51.378;-1.342;2023-05-16T00:01:01;101071.66;;;23.07;31.62
66396;BME280;53207;51.378;-1.342;2023-05-16T00:03:28;101075.64;;;23.24;31.62
66396;BME280;53207;51.378;-1.342;2023-05-16T00:05:55;101075.23;;;23.28;31.54
66396;BME280;53207;51.378;-1.342;2023-05-16T00:08:23;101078.10;;;23.28;31.59
66396;BME280;53207;51.378;-1.342;2023-05-16T00:10:50;101075.38;;;23.24;31.56
66396;BME280;53207;51.378;-1.342;2023-05-16T00:13:17;101081.13;;;23.18;31.58
66396;BME280;53207;51.378;-1.342;2023-05-16T00:15:45;101082.66;;;23.22;31.58
66396;BME280;53207;51.378;-1.342;2023-05-16T00:18:12;101088.12;;;23.25;31.47
66396;BME280;53207;51.378;-1.342;2023-05-16T00:20:39;101088.44;;;23.19;31.51
66396;BME280;53207;51.378;-1.342;2023-05-16T00:23:06;101087.32;;;23.17;31.59
66396;BME280;53207;51.378;-1.342;2023-05-16T00:25:34;101089.71;;;23.15;31.49
66396;BME280;53207;51.378;-1.342;2023-05-16T00:28:01;101087.95;;;22.96;31.43
66396;BME280;53207;51.378;-1.342;2023-05-16T00:30:28;101086.93;;;23.20;31.40
66396;BME280;53207;51.378;-1.342;2023-05-16T00:32:55;101086.31;;;23.09;31.49
66396;BME280;53207;51.378;-1.342;2023-05-16T00:35:23;101085.57;;;23.08;31.51
66396;BME280;53207;51.378;-1.342;2023-05-16T00:37:50;101089.91;;;23.18;31.38
66396;BME280;53207;51.378;-1.342;2023-05-16T00:40:17;101088.58;;;23.07;31.47
66396;BME280;53207;51.378;-1.342;2023-05-16T00:42:45;101085.06;;;23.08;31.43
66396;BME280;53207;51.378;-1.342;2023-05-16T00:45:12;101082.71;;;23.11;31.43
66396;BME280;53207;51.378;-1.342;2023-05-16T00:47:39;101079.62;;;23.09;31.36
66396;BME280;53207;51.378;-1.342;2023-05-16T00:50:07;101079.74;;;23.03;31.47
66396;BME280;53207;51.378;-1.342;2023-05-16T00:52:35;101080.58;;;23.00;31.45
66396;BME280;53207;51.378;-1.342;2023-05-16T00:55:02;101080.24;;;23.01;31.41
66396;BME280;53207;51.378;-1.342;2023-05-16T00:57:30;101079.32;;;23.24;31.43
66396;BME280;53207;51.378;-1.342;2023-05-16T00:59:58;101077.37;;;23.22;31.45
66396;BME280;53207;51.378;-1.342;2023-05-16T01:02:25;101076.29;;;23.21;31.48
66396;BME280;53207;51.378;-1.342;2023-05-16T01:04:53;101074.26;;;22.96;31.51
66396;BME280;53207;51.378;-1.342;2023-05-16T01:07:21;101074.74;;;23.18;31.51
66396;BME280;53207;51.378;-1.342;2023-05-16T01:09:48;101074.93;;;22.93;31.57
66396;BME280;53207;51.378;-1.342;2023-05-16T01:12:24;101073.70;;;23.01;31.42
66396;BME280;53207;51.378;-1.342;2023-05-16T01:15:01;101074.92;;;22.96;31.48
66396;BME280;53207;51.378;-1.342;2023-05-16T01:17:35;101074.45;;;22.90;31.50
66396;BME280;53207;51.378;-1.342;2023-05-16T01:20:10;101076.19;;;22.96;31.44
66396;BME280;53207;51.378;-1.342;2023-05-16T01:22:55;101077.92;;;22.92;31.50
66396;BME280;53207;51.378;-1.342;2023-05-16T01:25:33;101079.15;;;23.19;31.39
66396;BME280;53207;51.378;-1.342;2023-05-16T01:28:05;101080.39;;;22.94;31.41
66396;BME280;53207;51.378;-1.342;2023-05-16T01:30:37;101083.02;;;22.93;31.38
66396;BME280;53207;51.378;-1.342;2023-05-16T01:33:04;101081.52;;;22.86;31.46
66396;BME280;53207;51.378;-1.342;2023-05-16T01:35:32;101082.32;;;22.88;31.41
66396;BME280;53207;51.378;-1.342;2023-05-16T01:38:09;101081.56;;;22.90;31.38
66396;BME280;53207;51.378;-1.342;2023-05-16T01:40:44;101082.13;;;22.91;31.35
66396;BME280;53207;51.378;-1.342;2023-05-16T01:43:16;101080.57;;;23.06;31.44
66396;BME280;53207;51.378;-1.342;2023-05-16T01:45:50;101080.42;;;22.82;31.43
66396;BME280;53207;51.378;-1.342;2023-05-16T01:48:22;101080.73;;;22.82;31.41
66396;BME280;53207;51.378;-1.342;2023-05-16T01:50:54;101077.33;;;22.72;31.50
66396;BME280;53207;51.378;-1.342;2023-05-16T01:53:26;101074.30;;;22.73;31.47
66396;BME280;53207;51.378;-1.342;2023-05-16T01:55:56;101074.71;;;22.98;31.43
66396;BME280;53207;51.378;-1.342;2023-05-16T01:58:26;101075.27;;;22.76;31.43
66396;BME280;53207;51.378;-1.342;2023-05-16T02:00:59;101076.86;;;22.72;31.46
66396;BME280;53207;51.378;-1.342;2023-05-16T02:03:27;101077.04;;;22.70;31.46
66396;BME280;53207;51.378;-1.342;2023-05-16T02:05:54;101079.39;;;22.65;31.53
66396;BME280;53207;51.378;-1.342;2023-05-16T02:08:21;101077.46;;;22.65;31.47
66396;BME280;53207;51.378;-1.342;2023-05-16T02:10:49;101080.82;;;22.66;31.46
66396;BME280;53207;51.378;-1.342;2023-05-16T02:13:16;101083.33;;;22.69;31.42
66396;BME280;53207;51.378;-1.342;2023-05-16T02:15:43;101081.24;;;22.64;31.44
66396;BME280;53207;51.378;-1.342;2023-05-16T02:18:10;101081.19;;;22.85;31.43
66396;BME280;53207;51.378;-1.342;2023-05-16T02:20:38;101084.85;;;22.59;31.44
66396;BME280;53207;51.378;-1.342;2023-05-16T02:23:05;101088.94;;;22.85;31.40
66396;BME280;53207;51.378;-1.342;2023-05-16T02:25:32;101087.98;;;22.82;31.42
66396;BME280;53207;51.378;-1.342;2023-05-16T02:27:59;101089.20;;;22.79;31.44
66396;BME280;53207;51.378;-1.342;2023-05-16T02:30:27;101087.55;;;23.04;31.45
66396;BME280;53207;51.378;-1.342;2023-05-16T02:32:54;101085.15;;;22.57;31.42
66396;BME280;53207;51.378;-1.342;2023-05-16T02:35:21;101084.26;;;22.76;31.46
66396;BME280;53207;51.378;-1.342;2023-05-16T02:37:49;101085.26;;;23.07;31.36
66396;BME280;53207;51.378;-1.342;2023-05-16T02:40:16;101084.48;;;22.52;31.44
66396;BME280;53207;51.378;-1.342;2023-05-16T02:42:43;101083.80;;;22.52;31.41
66396;BME280;53207;51.378;-1.342;2023-05-16T02:45:10;101081.66;;;23.01;31.41
66396;BME280;53207;51.378;-1.342;2023-05-16T02:47:38;101080.48;;;22.73;31.40
66396;BME280;53207;51.378;-1.342;2023-05-16T02:50:06;101078.97;;;22.69;31.44
66396;BME280;53207;51.378;-1.342;2023-05-16T02:52:33;101080.64;;;22.45;31.46
66396;BME280;53207;51.378;-1.342;2023-05-16T02:55:00;101083.21;;;22.65;31.49
66396;BME280;53207;51.378;-1.342;2023-05-16T02:57:28;101085.86;;;22.67;31.46
66396;BME280;53207;51.378;-1.342;2023-05-16T02:59:55;101086.11;;;22.38;31.55
66396;BME280;53207;51.378;-1.342;2023-05-16T03:02:22;101083.38;;;22.62;31.53
66396;BME280;53207;51.378;-1.342;2023-05-16T03:04:50;101082.70;;;22.40;31.55
66396;BME280;53207;51.378;-1.342;2023-05-16T03:07:17;101083.37;;;22.78;31.64
66396;BME280;53207;51.378;-1.342;2023-05-16T03:09:44;101082.92;;;22.60;31.54
66396;BME280;53207;51.378;-1.342;2023-05-16T03:12:11;101081.97;;;22.51;31.64
66396;BME280;53207;51.378;-1.342;2023-05-16T03:14:39;101083.33;;;22.80;31.59
66396;BME280;53207;51.378;-1.342;2023-05-16T03:17:06;101083.73;;;22.29;31.60
66396;BME280;53207;51.378;-1.342;2023-05-16T03:19:33;101085.89;;;22.50;31.60
66396;BME280;53207;51.378;-1.342;2023-05-16T03:22:01;101087.98;;;22.52;31.58
66396;BME280;53207;51.378;-1.342;2023-05-16T03:24:28;101087.38;;;22.75;31.58
66396;BME280;53207;51.378;-1.342;2023-05-16T03:26:56;101086.38;;;22.26;31.55
66396;BME280;53207;51.378;-1.342;2023-05-16T03:29:23;101086.69;;;22.42;31.62
66396;BME280;53207;51.378;-1.342;2023-05-16T03:31:50;101091.04;;;22.44;31.58
66396;BME280;53207;51.378;-1.342;2023-05-16T03:34:17;101088.44;;;22.43;31.59
66396;BME280;53207;51.378;-1.342;2023-05-16T03:36:44;101085.32;;;22.42;31.57
66396;BME280;53207;51.378;-1.342;2023-05-16T03:39:12;101085.24;;;22.58;31.65
66396;BME280;53207;51.378;-1.342;2023-05-16T03:41:39;101082.33;;;22.61;31.65
66396;BME280;53207;51.378;-1.342;2023-05-16T03:44:06;101079.15;;;22.33;31.61
66396;BME280;53207;51.378;-1.342;2023-05-16T03:46:34;101077.79;;;22.33;31.61
66396;BME280;53207;51.378;-1.342;2023-05-16T03:49:01;101078.35;;;22.30;31.65
66396;BME280;53207;51.378;-1.342;2023-05-16T03:51:28;101078.45;;;22.28;31.65
66396;BME280;53207;51.378;-1.342;2023-05-16T03:53:55;101079.26;;;22.23;31.70
66396;BME280;53207;51.378;-1.342;2023-05-16T03:56:23;101082.02;;;22.54;31.62
66396;BME280;53207;51.378;-1.342;2023-05-16T03:58:50;101085.40;;;22.51;31.66
66396;BME280;53207;51.378;-1.342;2023-05-16T04:01:17;101090.11;;;22.25;31.63
66396;BME280;53207;51.378;-1.342;2023-05-16T04:03:45;101091.64;;;22.22;31.66
66396;BME280;53207;51.378;-1.342;2023-05-16T04:06:12;101095.05;;;22.48;31.66
66396;BME280;53207;51.378;-1.342;2023-05-16T04:08:39;101097.28;;;22.47;31.66
66396;BME280;53207;51.378;-1.342;2023-05-16T04:11:06;101096.04;;;22.16;31.70
66396;BME280;53207;51.378;-1.342;2023-05-16T04:13:34;101095.74;;;22.17;31.67
66396;BME280;53207;51.378;-1.342;2023-05-16T04:16:01;101094.83;;;22.12;31.70
66396;BME280;53207;51.378;-1.342;2023-05-16T04:18:28;101094.33;;;22.17;31.64
66396;BME280;53207;51.378;-1.342;2023-05-16T04:20:56;101095.61;;;22.09;31.70
66396;BME280;53207;51.378;-1.342;2023-05-16T04:23:23;101097.10;;;22.32;31.74
66396;BME280;53207;51.378;-1.342;2023-05-16T04:25:50;101099.15;;;22.06;31.71
66396;BME280;53207;51.378;-1.342;2023-05-16T04:28:18;101104.63;;;22.32;31.70
66396;BME280;53207;51.378;-1.342;2023-05-16T04:30:45;101108.95;;;22.30;31.74
66396;BME280;53207;51.378;-1.342;2023-05-16T04:33:12;101110.95;;;21.98;31.79
66396;BME280;53207;51.378;-1.342;2023-05-16T04:35:40;101108.87;;;21.99;31.74
66396;BME280;53207;51.378;-1.342;2023-05-16T04:38:07;101107.00;;;21.98;31.74
66396;BME280;53207;51.378;-1.342;2023-05-16T04:40:34;101104.68;;;22.25;31.72
66396;BME280;53207;51.378;-1.342;2023-05-16T04:43:01;101106.76;;;21.97;31.76
66396;BME280;53207;51.378;-1.342;2023-05-16T04:45:29;101108.96;;;22.21;31.82
66396;BME280;53207;51.378;-1.342;2023-05-16T04:47:56;101108.22;;;21.92;31.80
66396;BME280;53207;51.378;-1.342;2023-05-16T04:50:23;101110.31;;;21.85;31.87
66396;BME280;53207;51.378;-1.342;2023-05-16T04:52:50;101113.46;;;22.21;31.76
66396;BME280;53207;51.378;-1.342;2023-05-16T04:55:18;101112.03;;;22.18;31.81
66396;BME280;53207;51.378;-1.342;2023-05-16T04:57:45;101112.97;;;22.18;31.78
66396;BME280;53207;51.378;-1.342;2023-05-16T05:00:14;101116.98;;;22.18;31.77
66396;BME280;53207;51.378;-1.342;2023-05-16T05:02:41;101118.22;;;22.10;31.86
66396;BME280;53207;51.378;-1.342;2023-05-16T05:05:09;101118.65;;;22.10;31.85
66396;BME280;53207;51.378;-1.342;2023-05-16T05:07:36;101119.28;;;22.10;31.83
66396;BME280;53207;51.378;-1.342;2023-05-16T05:10:04;101120.14;;;21.79;31.88
66396;BME280;53207;51.378;-1.342;2023-05-16T05:12:31;101121.03;;;22.08;31.81
66396;BME280;53207;51.378;-1.342;2023-05-16T05:14:59;101122.39;;;22.05;31.81
66396;BME280;53207;51.378;-1.342;2023-05-16T05:17:26;101123.26;;;22.04;31.82
66396;BME280;53207;51.378;-1.342;2023-05-16T05:19:53;101123.28;;;22.05;31.79
66396;BME280;53207;51.378;-1.342;2023-05-16T05:22:20;101122.81;;;22.01;31.84
66396;BME280;53207;51.378;-1.342;2023-05-16T05:24:48;101124.27;;;21.75;31.84
66396;BME280;53207;51.378;-1.342;2023-05-16T05:27:15;101129.71;;;22.02;31.85
66396;BME280;53207;51.378;-1.342;2023-05-16T05:29:42;101128.54;;;21.79;31.76
66396;BME280;53207;51.378;-1.342;2023-05-16T05:32:10;101132.51;;;22.18;31.60
66396;BME280;53207;51.378;-1.342;2023-05-16T05:34:37;101137.49;;;21.98;31.52
66396;BME280;53207;51.378;-1.342;2023-05-16T05:37:04;101140.30;;;22.27;31.46
66396;BME280;53207;51.378;-1.342;2023-05-16T05:39:31;101146.21;;;22.11;31.29
66396;BME280;53207;51.378;-1.342;2023-05-16T05:41:59;101149.13;;;22.47;31.40
66396;BME280;53207;51.378;-1.342;2023-05-16T05:44:26;101152.04;;;22.09;31.41
66396;BME280;53207;51.378;-1.342;2023-05-16T05:46:53;101152.81;;;22.39;31.41
66396;BME280;53207;51.378;-1.342;2023-05-16T05:49:21;101156.56;;;22.73;31.44
66396;BME280;53207;51.378;-1.342;2023-05-16T05:51:48;101156.30;;;22.54;31.39
66396;BME280;53207;51.378;-1.342;2023-05-16T05:54:15;101156.46;;;22.89;31.40
66396;BME280;53207;51.378;-1.342;2023-05-16T05:56:43;101159.62;;;22.47;31.41
66396;BME280;53207;51.378;-1.342;2023-05-16T05:59:10;101160.61;;;22.75;31.47
66396;BME280;53207;51.378;-1.342;2023-05-16T06:01:37;101160.86;;;22.78;31.53
66396;BME280;53207;51.378;-1.342;2023-05-16T06:04:04;101161.66;;;22.58;31.59
66396;BME280;53207;51.378;-1.342;2023-05-16T06:06:32;101162.53;;;23.14;31.61
66396;BME280;53207;51.378;-1.342;2023-05-16T06:08:59;101166.58;;;22.86;31.75
66396;BME280;53207;51.378;-1.342;2023-05-16T06:11:26;101169.50;;;22.87;31.88
66396;BME280;53207;51.378;-1.342;2023-05-16T06:13:53;101174.01;;;22.88;31.91
66396;BME280;53207;51.378;-1.342;2023-05-16T06:16:23;101175.11;;;22.69;31.90
66396;BME280;53207;51.378;-1.342;2023-05-16T06:18:51;101176.58;;;23.16;32.17
66396;BME280;53207;51.378;-1.342;2023-05-16T06:21:18;101180.26;;;22.99;32.15
66396;BME280;53207;51.378;-1.342;2023-05-16T06:23:45;101178.30;;;22.75;32.18
66396;BME280;53207;51.378;-1.342;2023-05-16T06:26:12;101178.05;;;22.80;32.36
66396;BME280;53207;51.378;-1.342;2023-05-16T06:28:40;101179.61;;;22.83;32.48
66396;BME280;53207;51.378;-1.342;2023-05-16T06:31:07;101177.48;;;22.80;32.26
66396;BME280;53207;51.378;-1.342;2023-05-16T06:33:34;101173.84;;;22.87;32.32
66396;BME280;53207;51.378;-1.342;2023-05-16T06:36:02;101171.22;;;23.08;32.34
66396;BME280;53207;51.378;-1.342;2023-05-16T06:38:29;101173.33;;;23.00;32.22
66396;BME280;53207;51.378;-1.342;2023-05-16T06:40:56;101177.96;;;23.01;32.16
66396;BME280;53207;51.378;-1.342;2023-05-16T06:43:23;101181.31;;;23.05;32.12
66396;BME280;53207;51.378;-1.342;2023-05-16T06:45:51;101180.83;;;23.06;32.20
66396;BME280;53207;51.378;-1.342;2023-05-16T06:48:18;101181.98;;;23.10;32.13
66396;BME280;53207;51.378;-1.342;2023-05-16T06:50:47;101179.86;;;23.33;32.12
66396;BME280;53207;51.378;-1.342;2023-05-16T06:53:14;101180.59;;;23.16;32.00
66396;BME280;53207;51.378;-1.342;2023-05-16T06:55:41;101179.09;;;23.11;32.21
66396;BME280;53207;51.378;-1.342;2023-05-16T06:58:09;101180.57;;;23.19;31.91
66396;BME280;53207;51.378;-1.342;2023-05-16T07:00:36;101181.63;;;23.16;31.98
66396;BME280;53207;51.378;-1.342;2023-05-16T07:03:04;101187.58;;;23.17;31.91
66396;BME280;53207;51.378;-1.342;2023-05-16T07:05:31;101185.29;;;23.13;31.87
66396;BME280;53207;51.378;-1.342;2023-05-16T07:07:58;101188.92;;;23.11;31.87
66396;BME280;53207;51.378;-1.342;2023-05-16T07:10:25;101188.92;;;23.18;31.75
66396;BME280;53207;51.378;-1.342;2023-05-16T07:12:53;101194.59;;;23.10;31.91
66396;BME280;53207;51.378;-1.342;2023-05-16T07:15:20;101198.32;;;23.20;31.89
66396;BME280;53207;51.378;-1.342;2023-05-16T07:17:48;101199.22;;;23.13;31.92
66396;BME280;53207;51.378;-1.342;2023-05-16T07:20:14;101199.70;;;23.15;31.91
66396;BME280;53207;51.378;-1.342;2023-05-16T07:22:42;101194.59;;;23.41;31.90
66396;BME280;53207;51.378;-1.342;2023-05-16T07:25:09;101200.08;;;23.09;32.00
66396;BME280;53207;51.378;-1.342;2023-05-16T07:27:37;101197.19;;;23.18;31.94
66396;BME280;53207;51.378;-1.342;2023-05-16T07:30:04;101195.17;;;23.17;31.92
66396;BME280;53207;51.378;-1.342;2023-05-16T07:32:32;101196.89;;;23.19;31.97
66396;BME280;53207;51.378;-1.342;2023-05-16T07:34:59;101202.07;;;23.20;31.92
66396;BME280;53207;51.378;-1.342;2023-05-16T07:37:26;101203.46;;;23.21;31.89
66396;BME280;53207;51.378;-1.342;2023-05-16T07:39:54;101206.26;;;23.18;32.00
66396;BME280;53207;51.378;-1.342;2023-05-16T07:42:21;101207.50;;;23.42;31.87
66396;BME280;53207;51.378;-1.342;2023-05-16T07:44:48;101203.57;;;23.22;31.82
66396;BME280;53207;51.378;-1.342;2023-05-16T07:47:15;101202.24;;;23.19;31.87
66396;BME280;53207;51.378;-1.342;2023-05-16T07:49:43;101202.61;;;23.22;31.95
66396;BME280;53207;51.378;-1.342;2023-05-16T07:52:10;101206.47;;;23.15;31.97
66396;BME280;53207;51.378;-1.342;2023-05-16T07:54:37;101205.95;;;23.21;32.00
66396;BME280;53207;51.378;-1.342;2023-05-16T07:57:05;101203.11;;;23.20;31.99
66396;BME280;53207;51.378;-1.342;2023-05-16T07:59:32;101203.61;;;23.08;32.29
66396;BME280;53207;51.378;-1.342;2023-05-16T08:01:59;101206.13;;;23.25;31.89
66396;BME280;53207;51.378;-1.342;2023-05-16T08:04:26;101206.15;;;23.10;32.21
66396;BME280;53207;51.378;-1.342;2023-05-16T08:06:54;101203.75;;;23.17;32.03
66396;BME280;53207;51.378;-1.342;2023-05-16T08:09:21;101202.49;;;23.16;32.02
66396;BME280;53207;51.378;-1.342;2023-05-16T08:11:48;101204.82;;;23.10;32.09
66396;BME280;53207;51.378;-1.342;2023-05-16T08:14:15;101202.90;;;23.11;32.12
66396;BME280;53207;51.378;-1.342;2023-05-16T08:16:43;101207.36;;;23.17;32.01
66396;BME280;53207;51.378;-1.342;2023-05-16T08:19:10;101207.62;;;23.15;32.06
66396;BME280;53207;51.378;-1.342;2023-05-16T08:21:37;101210.90;;;23.14;32.09
66396;BME280;53207;51.378;-1.342;2023-05-16T08:24:05;101208.48;;;23.13;32.07
66396;BME280;53207;51.378;-1.342;2023-05-16T08:26:33;101207.75;;;23.18;32.00
66396;BME280;53207;51.378;-1.342;2023-05-16T08:29:00;101210.54;;;23.36;32.09
66396;BME280;53207;51.378;-1.342;2023-05-16T08:31:27;101207.42;;;23.16;32.06
66396;BME280;53207;51.378;-1.342;2023-05-16T08:33:54;101211.86;;;23.17;32.03
66396;BME280;53207;51.378;-1.342;2023-05-16T08:36:21;101213.02;;;23.20;31.90
66396;BME280;53207;51.378;-1.342;2023-05-16T08:38:49;101210.86;;;23.15;32.03
66396;BME280;53207;51.378;-1.342;2023-05-16T08:41:16;101202.06;;;23.19;32.01
66396;BME280;53207;51.378;-1.342;2023-05-16T08:43:43;101200.24;;;23.24;31.84
66396;BME280;53207;51.378;-1.342;2023-05-16T08:46:11;101199.81;;;23.44;31.88
66396;BME280;53207;51.378;-1.342;2023-05-16T08:48:41;101196.66;;;23.25;31.86
66396;BME280;53207;51.378;-1.342;2023-05-16T08:51:09;101194.18;;;23.28;31.84
66396;BME280;53207;51.378;-1.342;2023-05-16T08:53:39;101195.26;;;23.32;31.79
66396;BME280;53207;51.378;-1.342;2023-05-16T08:56:12;101202.79;;;23.37;31.68
66396;BME280;53207;51.378;-1.342;2023-05-16T08:58:40;101204.62;;;23.37;31.75
66396;BME280;53207;51.378;-1.342;2023-05-16T09:01:07;101203.85;;;23.43;31.60
66396;BME280;53207;51.378;-1.342;2023-05-16T09:03:36;101204.75;;;23.44;31.57
66396;BME280;53207;51.378;-1.342;2023-05-16T09:06:04;101204.67;;;23.42;31.68
66396;BME280;53207;51.378;-1.342;2023-05-16T09:08:31;101211.54;;;23.40;31.66
66396;BME280;53207;51.378;-1.342;2023-05-16T09:10:59;101208.25;;;23.35;31.73
66396;BME280;53207;51.378;-1.342;2023-05-16T09:13:27;101207.40;;;23.41;31.58
66396;BME280;53207;51.378;-1.342;2023-05-16T09:16:12;101207.81;;;23.33;31.74
66396;BME280;53207;51.378;-1.342;2023-05-16T09:18:42;101210.35;;;23.27;31.84
66396;BME280;53207;51.378;-1.342;2023-05-16T09:21:12;101208.94;;;23.36;31.59
66396;BME280;53207;51.378;-1.342;2023-05-16T09:23:41;101212.09;;;23.26;31.79
66396;BME280;53207;51.378;-1.342;2023-05-16T09:26:08;101217.78;;;23.28;31.68
66396;BME280;53207;51.378;-1.342;2023-05-16T09:28:37;101215.23;;;23.16;31.82
66396;BME280;53207;51.378;-1.342;2023-05-16T09:31:26;101219.03;;;23.14;31.83
66396;BME280;53207;51.378;-1.342;2023-05-16T09:33:55;101218.14;;;23.17;31.77
66396;BME280;53207;51.378;-1.342;2023-05-16T09:36:23;101218.58;;;23.16;31.74
66396;BME280;53207;51.378;-1.342;2023-05-16T09:38:52;101214.18;;;23.13;31.75
66396;BME280;53207;51.378;-1.342;2023-05-16T09:41:20;101213.36;;;23.23;31.63
66396;BME280;53207;51.378;-1.342;2023-05-16T09:43:48;101210.50;;;23.12;31.75
66396;BME280;53207;51.378;-1.342;2023-05-16T09:46:15;101209.84;;;23.08;31.75
66396;BME280;53207;51.378;-1.342;2023-05-16T09:48:44;101210.32;;;23.08;31.78
66396;BME280;53207;51.378;-1.342;2023-05-16T09:51:13;101207.26;;;23.04;31.77
66396;BME280;53207;51.378;-1.342;2023-05-16T09:53:40;101208.89;;;23.13;31.69
66396;BME280;53207;51.378;-1.342;2023-05-16T09:56:10;101210.86;;;23.07;31.73
66396;BME280;53207;51.378;-1.342;2023-05-16T09:58:40;101207.96;;;23.07;31.67
66396;BME280;53207;51.378;-1.342;2023-05-16T10:01:08;101207.32;;;22.86;31.69
66396;BME280;53207;51.378;-1.342;2023-05-16T10:03:37;101211.13;;;23.15;31.61
66396;BME280;53207;51.378;-1.342;2023-05-16T10:06:06;101209.25;;;23.05;31.66
66396;BME280;53207;51.378;-1.342;2023-05-16T10:08:34;101211.03;;;23.02;31.72
66396;BME280;53207;51.378;-1.342;2023-05-16T10:11:03;101211.59;;;23.04;31.66
66396;BME280;53207;51.378;-1.342;2023-05-16T10:13:32;101211.72;;;23.14;31.58
66396;BME280;53207;51.378;-1.342;2023-05-16T10:16:05;101212.55;;;23.11;31.60
66396;BME280;53207;51.378;-1.342;2023-05-16T10:18:34;101211.73;;;23.01;31.46
66396;BME280;53207;51.378;-1.342;2023-05-16T10:21:05;101214.36;;;23.19;31.53
66396;BME280;53207;51.378;-1.342;2023-05-16T10:23:35;101213.84;;;23.21;31.52
66396;BME280;53207;51.378;-1.342;2023-05-16T10:26:04;101215.75;;;23.20;31.52
66396;BME280;53207;51.378;-1.342;2023-05-16T10:28:31;101212.63;;;23.22;31.46
66396;BME280;53207;51.378;-1.342;2023-05-16T10:31:00;101215.72;;;22.90;31.55
66396;BME280;53207;51.378;-1.342;2023-05-16T10:33:27;101214.54;;;23.22;31.44
66396;BME280;53207;51.378;-1.342;2023-05-16T10:35:55;101208.33;;;23.28;31.39
66396;BME280;53207;51.378;-1.342;2023-05-16T10:38:22;101198.78;;;23.30;31.38
66396;BME280;53207;51.378;-1.342;2023-05-16T10:40:50;101211.40;;;23.32;31.34
66396;BME280;53207;51.378;-1.342;2023-05-16T10:43:26;101208.36;;;23.37;31.32
66396;BME280;53207;51.378;-1.342;2023-05-16T10:45:56;101207.75;;;23.13;31.30
66396;BME280;53207;51.378;-1.342;2023-05-16T10:48:33;101205.48;;;23.34;31.30
66396;BME280;53207;51.378;-1.342;2023-05-16T10:51:02;101208.53;;;23.36;31.26
66396;BME280;53207;51.378;-1.342;2023-05-16T10:53:31;101210.83;;;23.04;31.34
66396;BME280;53207;51.378;-1.342;2023-05-16T10:56:13;101210.63;;;23.31;31.30
66396;BME280;53207;51.378;-1.342;2023-05-16T10:58:42;101203.89;;;23.36;31.26
66396;BME280;53207;51.378;-1.342;2023-05-16T11:01:17;101204.44;;;23.35;31.23
66396;BME280;53207;51.378;-1.342;2023-05-16T11:04:17;101196.12;;;23.35;31.24
66396;BME280;53207;51.378;-1.342;2023-05-16T11:06:49;101195.56;;;23.39;31.21
66396;BME280;53207;51.378;-1.342;2023-05-16T11:09:19;101196.86;;;23.41;31.20
66396;BME280;53207;51.378;-1.342;2023-05-16T11:11:53;101190.56;;;23.46;31.13
66396;BME280;53207;51.378;-1.342;2023-05-16T11:14:21;101190.47;;;23.46;31.13
66396;BME280;53207;51.378;-1.342;2023-05-16T11:16:49;101197.26;;;23.29;31.07
66396;BME280;53207;51.378;-1.342;2023-05-16T11:19:29;101203.34;;;23.45;31.10
66396;BME280;53207;51.378;-1.342;2023-05-16T11:22:07;101208.87;;;23.40;31.16
66396;BME280;53207;51.378;-1.342;2023-05-16T11:24:37;101209.88;;;23.23;31.12
66396;BME280;53207;51.378;-1.342;2023-05-16T11:27:05;101211.54;;;23.29;31.04
66396;BME280;53207;51.378;-1.342;2023-05-16T11:29:33;101203.83;;;23.48;31.09
66396;BME280;53207;51.378;-1.342;2023-05-16T11:32:02;101200.18;;;23.57;30.97
66396;BME280;53207;51.378;-1.342;2023-05-16T11:34:30;101199.65;;;23.65;30.88
66396;BME280;53207;51.378;-1.342;2023-05-16T11:36:57;101194.24;;;23.61;30.95
66396;BME280;53207;51.378;-1.342;2023-05-16T11:39:24;101188.38;;;23.62;30.94
66396;BME280;53207;51.378;-1.342;2023-05-16T11:41:52;101188.65;;;23.40;30.91
66396;BME280;53207;51.378;-1.342;2023-05-16T11:44:20;101190.98;;;23.60;30.90
66396;BME280;53207;51.378;-1.342;2023-05-16T11:46:47;101197.40;;;23.43;30.91
66396;BME280;53207;51.378;-1.342;2023-05-16T11:49:14;101197.74;;;23.67;30.87
66396;BME280;53207;51.378;-1.342;2023-05-16T11:51:42;101190.47;;;23.47;30.82
66396;BME280;53207;51.378;-1.342;2023-05-16T11:54:09;101192.69;;;23.72;30.81
66396;BME280;53207;51.378;-1.342;2023-05-16T11:56:38;101194.83;;;23.52;30.76
66396;BME280;53207;51.378;-1.342;2023-05-16T11:59:05;101192.32;;;23.50;30.81
66396;BME280;53207;51.378;-1.342;2023-05-16T12:01:34;101190.64;;;23.72;30.80
66396;BME280;53207;51.378;-1.342;2023-05-16T12:04:01;101191.22;;;23.69;30.81
66396;BME280;53207;51.378;-1.342;2023-05-16T12:06:28;101194.02;;;23.68;30.84
66396;BME280;53207;51.378;-1.342;2023-05-16T12:08:56;101194.46;;;23.68;30.85
66396;BME280;53207;51.378;-1.342;2023-05-16T12:11:23;101192.16;;;23.63;30.90
66396;BME280;53207;51.378;-1.342;2023-05-16T12:13:50;101192.43;;;23.46;30.83
66396;BME280;53207;51.378;-1.342;2023-05-16T12:16:18;101184.11;;;23.55;30.76
66396;BME280;53207;51.378;-1.342;2023-05-16T12:18:45;101188.66;;;23.65;30.88
66396;BME280;53207;51.378;-1.342;2023-05-16T12:21:12;101187.36;;;23.64;30.86
66396;BME280;53207;51.378;-1.342;2023-05-16T12:23:41;101186.96;;;23.62;30.88
66396;BME280;53207;51.378;-1.342;2023-05-16T12:26:08;101189.43;;;23.71;30.78
66396;BME280;53207;51.378;-1.342;2023-05-16T12:28:36;101184.47;;;23.50;30.79
66396;BME280;53207;51.378;-1.342;2023-05-16T12:31:03;101181.67;;;23.18;30.82
66396;BME280;53207;51.378;-1.342;2023-05-16T12:33:36;101181.38;;;23.70;30.82
66396;BME280;53207;51.378;-1.342;2023-05-16T12:36:04;101183.01;;;23.44;30.84
66396;BME280;53207;51.378;-1.342;2023-05-16T12:38:32;101183.79;;;23.68;30.85
66396;BME280;53207;51.378;-1.342;2023-05-16T12:40:59;101178.59;;;23.73;30.80
66396;BME280;53207;51.378;-1.342;2023-05-16T12:43:26;101182.05;;;23.54;30.77
66396;BME280;53207;51.378;-1.342;2023-05-16T12:45:55;101180.32;;;23.30;30.77